This is the latest recevied weather packets stored in our database for station/object JH0KSP-13. If no packets are shown the sender has not sent any weather packets the latest 1 day(s).
| Time | Temp. | Humidity | Pressure | Rain* | Wind** | Luminosity | Snow |
|---|---|---|---|---|---|---|---|
| 1836274382 | 22.22° C | 100% | 1013.8 hPa | 0 mm | 1.79 m/s, 277° | - | - |
| 1836274231 | 22.22° C | 100% | 1013.5 hPa | 0 mm | 1.79 m/s, 269° | - | - |
| 1778040416 | 17.22° C | 67% | 1020.4 hPa | 0 mm | 0.89 m/s, 191° | - | - |
| 1778039216 | 17.22° C | 67% | 1021 hPa | 0 mm | 1.79 m/s, 172° | - | - |
| 1778038016 | 17.22° C | 67% | 1021.1 hPa | 0 mm | 0 m/s | - | - |
| 1778036815 | 17.22° C | 69% | 1021.2 hPa | 0 mm | 0 m/s | - | - |
| 1778035616 | 17.22° C | 70% | 1021.5 hPa | 0 mm | 0 m/s | - | - |
| 1778035208 | 17.22° C | 73% | 1021.5 hPa | 0 mm | 0 m/s | - | - |
| 1778034416 | 16.11° C | 70% | 1021.5 hPa | 0 mm | 0 m/s | - | - |
| 1778034009 | 16.11° C | 70% | 1021.7 hPa | 0 mm | 0.45 m/s, 115° | - | - |
| 1778033216 | 16.11° C | 71% | 1021.9 hPa | 0 mm | 1.79 m/s, 194° | - | - |
| 1778032209 | 16.11° C | 75% | 1022 hPa | 0 mm | 0.45 m/s, 204° | - | - |
| 1778032016 | 16.11° C | 76% | 1022.1 hPa | 0 mm | 0.89 m/s, 246° | - | - |
| 1778031608 | 15° C | 77% | 1022.3 hPa | 0 mm | 1.79 m/s, 204° | - | - |
| 1778030816 | 15° C | 80% | 1022.5 hPa | 0 mm | 0 m/s | - | - |
| 1778030408 | 15° C | 80% | 1022.5 hPa | 0 mm | 0 m/s | - | - |
| 1778029616 | 13.89° C | 80% | 1022.8 hPa | 0 mm | 0.45 m/s, 63° | - | - |
| 1778028608 | 13.89° C | 84% | 1023 hPa | 0 mm | 0.45 m/s, 70° | - | - |
| 1778028417 | 13.89° C | 85% | 1022.9 hPa | 0 mm | 0 m/s | - | - |
| 1778027215 | 12.78° C | 85% | 1023 hPa | 0 mm | 0.89 m/s, 184° | - | - |
| 1778026209 | 12.78° C | 86% | 1023.1 hPa | 0 mm | 0 m/s | - | - |
| 1778026015 | 12.78° C | 86% | 1023.1 hPa | 0 mm | 0 m/s | - | - |
| 1778024816 | 12.78° C | 88% | 1023.2 hPa | 0 mm | 0.45 m/s, 89° | - | - |
| 1778023616 | 12.22° C | 90% | 1023.4 hPa | 0 mm | 0 m/s | - | - |
| 1778022415 | 12.22° C | 91% | 1023.6 hPa | 0 mm | 0 m/s | - | - |
* Rain latest hour (hover to see other rain measurements)
** Current wind speed in m/s (hover to see current wind gust speed)